Weather at Ranong Airport

Public forecast

Using degrees Celsius for public forecast. Weather courtesy of forecast.io.

Current aviation weather report (METAR) for Ranong Airport

Retrieved 2020/12/03 07:00 UTC (12 minutes ago):

VTSR 030700Z 27004KT 9999 -RA BKN020 25/24 Q1009 NOSIG

Aviation forecast (TAF) for Ranong Airport

Retrieved 2020/12/03 06:00 UTC (1 hour ago):

TAF VTSR 030500Z 0306/0406 26006KT 9999 BKN020 TEMPO 0306/0312 5000 RA SCT020 BKN100